sensor_id;sensor_type;location;lat;lon;timestamp;P1;durP1;ratioP1;P2;durP2;ratioP2
29576;SDS011;16509;53.862;10.672;2022-11-15T00:03:50;54.22;;;20.05;;
29576;SDS011;16509;53.862;10.672;2022-11-15T00:06:16;56.42;;;19.58;;
29576;SDS011;16509;53.862;10.672;2022-11-15T00:08:51;53.05;;;19.35;;
29576;SDS011;16509;53.862;10.672;2022-11-15T00:13:47;51.88;;;20.55;;
29576;SDS011;16509;53.862;10.672;2022-11-15T00:16:12;44.03;;;18.60;;
29576;SDS011;16509;53.862;10.672;2022-11-15T00:18:38;48.83;;;20.23;;
29576;SDS011;16509;53.862;10.672;2022-11-15T00:21:08;47.88;;;19.38;;
29576;SDS011;16509;53.862;10.672;2022-11-15T00:23:35;53.25;;;20.50;;
29576;SDS011;16509;53.862;10.672;2022-11-15T00:26:02;50.40;;;20.17;;
29576;SDS011;16509;53.862;10.672;2022-11-15T00:28:27;53.03;;;20.30;;
29576;SDS011;16509;53.862;10.672;2022-11-15T00:30:53;46.92;;;18.70;;
29576;SDS011;16509;53.862;10.672;2022-11-15T00:33:19;50.08;;;19.42;;
29576;SDS011;16509;53.862;10.672;2022-11-15T00:35:44;49.53;;;18.52;;
29576;SDS011;16509;53.862;10.672;2022-11-15T00:38:10;50.15;;;20.25;;
29576;SDS011;16509;53.862;10.672;2022-11-15T00:40:36;56.50;;;20.50;;
29576;SDS011;16509;53.862;10.672;2022-11-15T00:43:01;50.53;;;19.00;;
29576;SDS011;16509;53.862;10.672;2022-11-15T00:45:32;55.03;;;21.30;;
29576;SDS011;16509;53.862;10.672;2022-11-15T00:47:57;49.72;;;20.55;;
29576;SDS011;16509;53.862;10.672;2022-11-15T00:50:23;53.10;;;20.25;;
29576;SDS011;16509;53.862;10.672;2022-11-15T00:52:48;54.15;;;20.45;;
29576;SDS011;16509;53.862;10.672;2022-11-15T00:55:15;49.67;;;19.83;;
29576;SDS011;16509;53.862;10.672;2022-11-15T00:57:42;54.15;;;20.30;;
29576;SDS011;16509;53.862;10.672;2022-11-15T01:02:57;52.72;;;20.58;;
29576;SDS011;16509;53.862;10.672;2022-11-15T01:05:24;49.50;;;18.45;;
29576;SDS011;16509;53.862;10.672;2022-11-15T01:07:54;50.78;;;21.13;;
29576;SDS011;16509;53.862;10.672;2022-11-15T01:10:20;50.80;;;20.52;;
29576;SDS011;16509;53.862;10.672;2022-11-15T01:12:47;51.95;;;20.88;;
29576;SDS011;16509;53.862;10.672;2022-11-15T01:15:16;51.22;;;19.77;;
29576;SDS011;16509;53.862;10.672;2022-11-15T01:17:42;51.85;;;19.38;;
29576;SDS011;16509;53.862;10.672;2022-11-15T01:20:07;52.63;;;20.83;;
29576;SDS011;16509;53.862;10.672;2022-11-15T01:22:34;46.30;;;19.25;;
29576;SDS011;16509;53.862;10.672;2022-11-15T01:24:59;55.20;;;20.92;;
29576;SDS011;16509;53.862;10.672;2022-11-15T01:27:25;55.83;;;21.05;;
29576;SDS011;16509;53.862;10.672;2022-11-15T01:29:50;47.72;;;19.30;;
29576;SDS011;16509;53.862;10.672;2022-11-15T01:32:16;50.50;;;18.67;;
29576;SDS011;16509;53.862;10.672;2022-11-15T01:34:42;47.92;;;19.58;;
29576;SDS011;16509;53.862;10.672;2022-11-15T01:37:08;53.15;;;19.27;;
29576;SDS011;16509;53.862;10.672;2022-11-15T01:39:36;45.55;;;19.08;;
29576;SDS011;16509;53.862;10.672;2022-11-15T01:42:01;46.47;;;19.27;;
29576;SDS011;16509;53.862;10.672;2022-11-15T01:46:59;52.17;;;20.40;;
29576;SDS011;16509;53.862;10.672;2022-11-15T01:49:27;50.75;;;20.23;;
29576;SDS011;16509;53.862;10.672;2022-11-15T01:51:57;46.10;;;18.30;;
29576;SDS011;16509;53.862;10.672;2022-11-15T01:54:24;51.33;;;20.58;;
29576;SDS011;16509;53.862;10.672;2022-11-15T01:56:55;49.65;;;19.98;;
29576;SDS011;16509;53.862;10.672;2022-11-15T01:59:32;46.70;;;19.55;;
29576;SDS011;16509;53.862;10.672;2022-11-15T02:01:59;50.67;;;20.08;;
29576;SDS011;16509;53.862;10.672;2022-11-15T02:04:29;44.80;;;18.00;;
29576;SDS011;16509;53.862;10.672;2022-11-15T02:06:57;45.50;;;19.08;;
29576;SDS011;16509;53.862;10.672;2022-11-15T02:09:26;42.13;;;17.92;;
29576;SDS011;16509;53.862;10.672;2022-11-15T02:11:52;41.40;;;17.65;;
29576;SDS011;16509;53.862;10.672;2022-11-15T02:14:20;50.72;;;19.45;;
29576;SDS011;16509;53.862;10.672;2022-11-15T02:22:05;48.97;;;19.60;;
29576;SDS011;16509;53.862;10.672;2022-11-15T02:30:47;40.47;;;16.75;;
29576;SDS011;16509;53.862;10.672;2022-11-15T02:33:31;46.85;;;18.25;;
29576;SDS011;16509;53.862;10.672;2022-11-15T02:36:41;50.88;;;19.13;;
29576;SDS011;16509;53.862;10.672;2022-11-15T02:39:08;43.42;;;17.10;;
29576;SDS011;16509;53.862;10.672;2022-11-15T02:42:03;46.05;;;19.05;;
29576;SDS011;16509;53.862;10.672;2022-11-15T02:44:52;43.15;;;18.15;;
29576;SDS011;16509;53.862;10.672;2022-11-15T02:47:20;41.42;;;17.75;;
29576;SDS011;16509;53.862;10.672;2022-11-15T02:49:51;48.28;;;18.85;;
29576;SDS011;16509;53.862;10.672;2022-11-15T02:54:57;44.35;;;18.00;;
29576;SDS011;16509;53.862;10.672;2022-11-15T02:57:44;59.72;;;18.95;;
29576;SDS011;16509;53.862;10.672;2022-11-15T03:00:17;44.15;;;17.40;;
29576;SDS011;16509;53.862;10.672;2022-11-15T03:08:31;46.33;;;17.98;;
29576;SDS011;16509;53.862;10.672;2022-11-15T03:11:03;46.15;;;17.63;;
29576;SDS011;16509;53.862;10.672;2022-11-15T03:13:39;46.75;;;17.50;;
29576;SDS011;16509;53.862;10.672;2022-11-15T03:18:56;47.17;;;17.42;;
29576;SDS011;16509;53.862;10.672;2022-11-15T03:21:26;37.45;;;16.40;;
29576;SDS011;16509;53.862;10.672;2022-11-15T03:23:54;43.42;;;17.60;;
29576;SDS011;16509;53.862;10.672;2022-11-15T03:26:24;48.95;;;20.30;;
29576;SDS011;16509;53.862;10.672;2022-11-15T03:29:01;44.50;;;17.88;;
29576;SDS011;16509;53.862;10.672;2022-11-15T03:31:32;44.65;;;18.10;;
29576;SDS011;16509;53.862;10.672;2022-11-15T03:36:54;43.10;;;17.58;;
29576;SDS011;16509;53.862;10.672;2022-11-15T03:39:20;47.38;;;18.75;;
29576;SDS011;16509;53.862;10.672;2022-11-15T03:50:36;44.78;;;16.80;;
29576;SDS011;16509;53.862;10.672;2022-11-15T03:53:02;48.38;;;17.85;;
29576;SDS011;16509;53.862;10.672;2022-11-15T03:55:31;45.85;;;18.73;;
29576;SDS011;16509;53.862;10.672;2022-11-15T03:57:58;43.88;;;18.05;;
29576;SDS011;16509;53.862;10.672;2022-11-15T04:00:40;41.20;;;16.35;;
29576;SDS011;16509;53.862;10.672;2022-11-15T04:05:49;39.85;;;17.00;;
29576;SDS011;16509;53.862;10.672;2022-11-15T04:08:14;42.40;;;17.52;;
29576;SDS011;16509;53.862;10.672;2022-11-15T04:10:49;43.58;;;17.63;;
29576;SDS011;16509;53.862;10.672;2022-11-15T04:13:14;39.70;;;17.67;;
29576;SDS011;16509;53.862;10.672;2022-11-15T04:15:47;43.53;;;17.52;;
29576;SDS011;16509;53.862;10.672;2022-11-15T04:18:13;42.08;;;16.52;;
29576;SDS011;16509;53.862;10.672;2022-11-15T04:20:38;46.78;;;19.15;;
29576;SDS011;16509;53.862;10.672;2022-11-15T04:23:22;44.92;;;17.75;;
29576;SDS011;16509;53.862;10.672;2022-11-15T04:28:52;42.35;;;18.45;;
29576;SDS011;16509;53.862;10.672;2022-11-15T04:31:52;33.83;;;15.55;;
29576;SDS011;16509;53.862;10.672;2022-11-15T04:34:18;44.33;;;18.05;;
29576;SDS011;16509;53.862;10.672;2022-11-15T04:36:43;47.17;;;17.08;;
29576;SDS011;16509;53.862;10.672;2022-11-15T04:39:34;43.38;;;17.05;;
29576;SDS011;16509;53.862;10.672;2022-11-15T04:44:25;39.75;;;16.60;;
29576;SDS011;16509;53.862;10.672;2022-11-15T04:49:46;40.40;;;17.00;;
29576;SDS011;16509;53.862;10.672;2022-11-15T04:55:18;38.38;;;17.02;;
29576;SDS011;16509;53.862;10.672;2022-11-15T05:01:06;43.53;;;16.65;;
29576;SDS011;16509;53.862;10.672;2022-11-15T05:03:36;42.35;;;16.42;;
29576;SDS011;16509;53.862;10.672;2022-11-15T05:06:21;45.20;;;17.48;;
29576;SDS011;16509;53.862;10.672;2022-11-15T05:08:47;42.55;;;16.88;;
29576;SDS011;16509;53.862;10.672;2022-11-15T05:11:13;44.85;;;16.73;;
29576;SDS011;16509;53.862;10.672;2022-11-15T05:13:38;47.85;;;17.77;;
29576;SDS011;16509;53.862;10.672;2022-11-15T05:16:10;45.97;;;17.40;;
29576;SDS011;16509;53.862;10.672;2022-11-15T05:18:36;38.15;;;16.65;;
29576;SDS011;16509;53.862;10.672;2022-11-15T05:21:09;43.70;;;17.88;;
29576;SDS011;16509;53.862;10.672;2022-11-15T05:23:37;38.10;;;16.35;;
29576;SDS011;16509;53.862;10.672;2022-11-15T05:26:03;40.40;;;16.25;;
29576;SDS011;16509;53.862;10.672;2022-11-15T05:28:30;47.83;;;17.15;;
29576;SDS011;16509;53.862;10.672;2022-11-15T05:31:06;42.58;;;16.98;;
29576;SDS011;16509;53.862;10.672;2022-11-15T05:33:39;44.60;;;17.05;;
29576;SDS011;16509;53.862;10.672;2022-11-15T05:38:50;39.83;;;15.13;;
29576;SDS011;16509;53.862;10.672;2022-11-15T05:41:20;39.20;;;16.63;;
29576;SDS011;16509;53.862;10.672;2022-11-15T05:43:51;42.05;;;16.08;;
29576;SDS011;16509;53.862;10.672;2022-11-15T05:46:19;35.95;;;16.55;;
29576;SDS011;16509;53.862;10.672;2022-11-15T05:48:45;38.88;;;16.50;;
29576;SDS011;16509;53.862;10.672;2022-11-15T05:51:14;39.10;;;15.90;;
29576;SDS011;16509;53.862;10.672;2022-11-15T05:53:44;38.42;;;15.10;;
29576;SDS011;16509;53.862;10.672;2022-11-15T05:56:10;40.70;;;16.05;;
29576;SDS011;16509;53.862;10.672;2022-11-15T05:58:38;35.40;;;14.90;;
29576;SDS011;16509;53.862;10.672;2022-11-15T06:01:14;35.22;;;15.68;;
29576;SDS011;16509;53.862;10.672;2022-11-15T06:03:40;40.65;;;15.90;;
29576;SDS011;16509;53.862;10.672;2022-11-15T06:06:05;36.72;;;14.77;;
29576;SDS011;16509;53.862;10.672;2022-11-15T06:08:31;44.33;;;16.70;;
29576;SDS011;16509;53.862;10.672;2022-11-15T06:11:02;39.67;;;15.52;;
29576;SDS011;16509;53.862;10.672;2022-11-15T06:13:28;43.78;;;16.80;;
29576;SDS011;16509;53.862;10.672;2022-11-15T06:15:57;35.80;;;16.45;;
29576;SDS011;16509;53.862;10.672;2022-11-15T06:18:23;30.00;;;14.40;;
29576;SDS011;16509;53.862;10.672;2022-11-15T06:20:49;32.97;;;14.95;;
29576;SDS011;16509;53.862;10.672;2022-11-15T06:23:14;30.90;;;14.60;;
29576;SDS011;16509;53.862;10.672;2022-11-15T06:25:42;32.83;;;15.52;;
29576;SDS011;16509;53.862;10.672;2022-11-15T06:28:07;31.48;;;14.65;;
29576;SDS011;16509;53.862;10.672;2022-11-15T06:30:33;37.17;;;15.23;;
29576;SDS011;16509;53.862;10.672;2022-11-15T06:33:03;38.60;;;15.90;;
29576;SDS011;16509;53.862;10.672;2022-11-15T06:38:19;33.15;;;14.88;;
29576;SDS011;16509;53.862;10.672;2022-11-15T06:40:44;34.15;;;15.32;;
29576;SDS011;16509;53.862;10.672;2022-11-15T06:44:10;31.58;;;13.25;;
29576;SDS011;16509;53.862;10.672;2022-11-15T06:46:38;34.47;;;13.45;;
29576;SDS011;16509;53.862;10.672;2022-11-15T06:49:03;39.55;;;16.15;;
29576;SDS011;16509;53.862;10.672;2022-11-15T06:51:29;33.55;;;13.90;;
29576;SDS011;16509;53.862;10.672;2022-11-15T06:53:54;35.33;;;15.65;;
29576;SDS011;16509;53.862;10.672;2022-11-15T06:56:20;34.38;;;14.38;;
29576;SDS011;16509;53.862;10.672;2022-11-15T06:58:46;32.20;;;13.73;;
29576;SDS011;16509;53.862;10.672;2022-11-15T07:01:15;34.25;;;14.60;;
29576;SDS011;16509;53.862;10.672;2022-11-15T07:03:44;33.70;;;14.23;;
29576;SDS011;16509;53.862;10.672;2022-11-15T07:06:23;36.58;;;14.80;;
29576;SDS011;16509;53.862;10.672;2022-11-15T07:08:48;39.47;;;14.88;;
29576;SDS011;16509;53.862;10.672;2022-11-15T07:11:14;35.05;;;14.55;;
29576;SDS011;16509;53.862;10.672;2022-11-15T07:13:45;34.20;;;13.95;;
29576;SDS011;16509;53.862;10.672;2022-11-15T07:16:10;31.02;;;14.85;;
29576;SDS011;16509;53.862;10.672;2022-11-15T07:18:39;35.35;;;13.77;;
29576;SDS011;16509;53.862;10.672;2022-11-15T07:21:06;35.47;;;14.63;;
29576;SDS011;16509;53.862;10.672;2022-11-15T07:23:37;32.03;;;14.45;;
29576;SDS011;16509;53.862;10.672;2022-11-15T07:26:03;33.10;;;14.02;;
29576;SDS011;16509;53.862;10.672;2022-11-15T07:28:29;32.05;;;15.68;;
29576;SDS011;16509;53.862;10.672;2022-11-15T07:30:55;31.10;;;15.00;;
29576;SDS011;16509;53.862;10.672;2022-11-15T07:33:21;32.97;;;13.90;;
29576;SDS011;16509;53.862;10.672;2022-11-15T07:35:47;33.15;;;14.50;;
29576;SDS011;16509;53.862;10.672;2022-11-15T07:38:15;33.22;;;15.10;;
29576;SDS011;16509;53.862;10.672;2022-11-15T07:40:45;31.00;;;13.82;;
29576;SDS011;16509;53.862;10.672;2022-11-15T07:43:11;35.95;;;14.20;;
29576;SDS011;16509;53.862;10.672;2022-11-15T07:45:41;35.60;;;14.35;;
29576;SDS011;16509;53.862;10.672;2022-11-15T07:48:08;32.60;;;13.50;;
29576;SDS011;16509;53.862;10.672;2022-11-15T07:50:34;30.73;;;12.88;;
29576;SDS011;16509;53.862;10.672;2022-11-15T07:53:01;29.42;;;13.40;;
29576;SDS011;16509;53.862;10.672;2022-11-15T07:55:28;31.17;;;14.10;;
29576;SDS011;16509;53.862;10.672;2022-11-15T07:58:05;32.95;;;13.25;;
29576;SDS011;16509;53.862;10.672;2022-11-15T08:00:33;31.23;;;13.70;;
29576;SDS011;16509;53.862;10.672;2022-11-15T08:03:06;29.83;;;13.38;;
29576;SDS011;16509;53.862;10.672;2022-11-15T08:05:34;32.08;;;13.90;;
29576;SDS011;16509;53.862;10.672;2022-11-15T08:08:01;27.42;;;12.80;;
29576;SDS011;16509;53.862;10.672;2022-11-15T08:10:27;29.20;;;12.93;;
29576;SDS011;16509;53.862;10.672;2022-11-15T08:12:59;34.92;;;14.82;;
29576;SDS011;16509;53.862;10.672;2022-11-15T08:15:30;31.10;;;13.88;;
29576;SDS011;16509;53.862;10.672;2022-11-15T08:17:57;32.83;;;13.55;;
29576;SDS011;16509;53.862;10.672;2022-11-15T08:20:25;28.45;;;13.02;;
29576;SDS011;16509;53.862;10.672;2022-11-15T08:22:54;28.63;;;12.23;;
29576;SDS011;16509;53.862;10.672;2022-11-15T08:25:21;25.42;;;12.23;;
29576;SDS011;16509;53.862;10.672;2022-11-15T08:27:47;25.30;;;12.40;;
29576;SDS011;16509;53.862;10.672;2022-11-15T08:30:13;30.58;;;13.38;;
29576;SDS011;16509;53.862;10.672;2022-11-15T08:32:40;24.77;;;12.32;;
29576;SDS011;16509;53.862;10.672;2022-11-15T08:35:06;30.17;;;12.40;;
29576;SDS011;16509;53.862;10.672;2022-11-15T08:37:32;32.83;;;12.48;;
29576;SDS011;16509;53.862;10.672;2022-11-15T08:39:58;25.42;;;12.23;;
29576;SDS011;16509;53.862;10.672;2022-11-15T08:42:29;26.88;;;11.40;;
29576;SDS011;16509;53.862;10.672;2022-11-15T08:44:55;27.73;;;12.43;;
29576;SDS011;16509;53.862;10.672;2022-11-15T08:47:20;26.50;;;12.32;;
29576;SDS011;16509;53.862;10.672;2022-11-15T08:49:48;24.77;;;11.85;;
29576;SDS011;16509;53.862;10.672;2022-11-15T08:52:13;34.72;;;13.75;;
29576;SDS011;16509;53.862;10.672;2022-11-15T08:54:39;28.50;;;11.07;;
29576;SDS011;16509;53.862;10.672;2022-11-15T08:57:08;33.00;;;11.57;;
29576;SDS011;16509;53.862;10.672;2022-11-15T08:59:34;29.73;;;12.15;;
29576;SDS011;16509;53.862;10.672;2022-11-15T09:02:02;23.52;;;11.40;;
29576;SDS011;16509;53.862;10.672;2022-11-15T09:04:28;24.50;;;12.65;;
29576;SDS011;16509;53.862;10.672;2022-11-15T09:06:54;26.17;;;11.50;;
29576;SDS011;16509;53.862;10.672;2022-11-15T09:09:19;26.73;;;11.40;;
29576;SDS011;16509;53.862;10.672;2022-11-15T09:11:45;25.60;;;12.23;;
29576;SDS011;16509;53.862;10.672;2022-11-15T09:14:11;24.98;;;12.23;;
29576;SDS011;16509;53.862;10.672;2022-11-15T09:16:38;25.02;;;12.02;;
29576;SDS011;16509;53.862;10.672;2022-11-15T09:19:04;28.42;;;11.85;;
29576;SDS011;16509;53.862;10.672;2022-11-15T09:21:30;25.02;;;11.35;;
29576;SDS011;16509;53.862;10.672;2022-11-15T09:23:56;25.88;;;12.50;;
29576;SDS011;16509;53.862;10.672;2022-11-15T09:26:22;23.50;;;11.70;;
29576;SDS011;16509;53.862;10.672;2022-11-15T09:28:48;24.05;;;11.77;;
29576;SDS011;16509;53.862;10.672;2022-11-15T09:31:14;23.48;;;11.48;;
29576;SDS011;16509;53.862;10.672;2022-11-15T09:36:11;27.45;;;11.77;;
29576;SDS011;16509;53.862;10.672;2022-11-15T09:38:37;24.63;;;11.20;;
29576;SDS011;16509;53.862;10.672;2022-11-15T09:43:56;23.13;;;11.40;;
29576;SDS011;16509;53.862;10.672;2022-11-15T09:49:34;20.65;;;9.85;;
29576;SDS011;16509;53.862;10.672;2022-11-15T09:51:59;26.30;;;11.60;;
29576;SDS011;16509;53.862;10.672;2022-11-15T09:57:17;23.40;;;10.73;;
29576;SDS011;16509;53.862;10.672;2022-11-15T10:13:03;27.85;;;11.20;;
29576;SDS011;16509;53.862;10.672;2022-11-15T10:15:29;26.30;;;12.00;;
29576;SDS011;16509;53.862;10.672;2022-11-15T10:20:44;30.52;;;11.10;;
29576;SDS011;16509;53.862;10.672;2022-11-15T10:23:12;23.52;;;9.95;;
29576;SDS011;16509;53.862;10.672;2022-11-15T10:26:00;22.58;;;10.13;;
29576;SDS011;16509;53.862;10.672;2022-11-15T10:28:29;21.33;;;9.75;;
29576;SDS011;16509;53.862;10.672;2022-11-15T10:30:56;21.45;;;10.95;;
29576;SDS011;16509;53.862;10.672;2022-11-15T10:33:25;18.45;;;9.30;;
29576;SDS011;16509;53.862;10.672;2022-11-15T10:41:14;19.38;;;10.05;;
29576;SDS011;16509;53.862;10.672;2022-11-15T10:43:41;19.58;;;9.15;;
29576;SDS011;16509;53.862;10.672;2022-11-15T10:46:20;18.58;;;9.77;;
29576;SDS011;16509;53.862;10.672;2022-11-15T10:48:48;18.80;;;10.63;;
29576;SDS011;16509;53.862;10.672;2022-11-15T10:51:21;24.20;;;9.35;;
29576;SDS011;16509;53.862;10.672;2022-11-15T10:53:53;18.85;;;9.57;;
29576;SDS011;16509;53.862;10.672;2022-11-15T10:56:21;24.30;;;9.63;;
29576;SDS011;16509;53.862;10.672;2022-11-15T10:58:53;22.25;;;9.32;;
29576;SDS011;16509;53.862;10.672;2022-11-15T11:01:25;23.10;;;9.30;;
29576;SDS011;16509;53.862;10.672;2022-11-15T11:09:23;21.95;;;10.52;;
29576;SDS011;16509;53.862;10.672;2022-11-15T11:11:55;20.92;;;10.80;;
29576;SDS011;16509;53.862;10.672;2022-11-15T11:14:24;20.95;;;10.50;;
29576;SDS011;16509;53.862;10.672;2022-11-15T11:17:20;19.60;;;10.32;;
29576;SDS011;16509;53.862;10.672;2022-11-15T11:20:06;17.08;;;8.80;;
29576;SDS011;16509;53.862;10.672;2022-11-15T11:36:45;18.27;;;10.10;;
29576;SDS011;16509;53.862;10.672;2022-11-15T11:39:36;27.42;;;10.88;;
29576;SDS011;16509;53.862;10.672;2022-11-15T11:47:55;19.85;;;10.15;;
29576;SDS011;16509;53.862;10.672;2022-11-15T11:50:42;19.90;;;9.45;;
29576;SDS011;16509;53.862;10.672;2022-11-15T11:56:11;21.48;;;9.85;;
29576;SDS011;16509;53.862;10.672;2022-11-15T11:58:44;21.92;;;9.40;;
29576;SDS011;16509;53.862;10.672;2022-11-15T12:03:47;20.45;;;9.50;;
29576;SDS011;16509;53.862;10.672;2022-11-15T12:06:30;18.73;;;10.00;;
29576;SDS011;16509;53.862;10.672;2022-11-15T12:17:28;21.15;;;8.80;;
29576;SDS011;16509;53.862;10.672;2022-11-15T12:19:57;22.30;;;9.50;;
29576;SDS011;16509;53.862;10.672;2022-11-15T12:22:36;17.38;;;8.70;;
29576;SDS011;16509;53.862;10.672;2022-11-15T12:25:13;19.67;;;9.48;;
29576;SDS011;16509;53.862;10.672;2022-11-15T12:27:52;21.08;;;8.55;;
29576;SDS011;16509;53.862;10.672;2022-11-15T12:30:36;17.98;;;8.65;;
29576;SDS011;16509;53.862;10.672;2022-11-15T12:33:28;19.85;;;9.32;;
29576;SDS011;16509;53.862;10.672;2022-11-15T12:35:58;25.50;;;9.68;;
29576;SDS011;16509;53.862;10.672;2022-11-15T12:41:19;25.60;;;8.77;;
29576;SDS011;16509;53.862;10.672;2022-11-15T12:43:46;22.15;;;8.88;;
29576;SDS011;16509;53.862;10.672;2022-11-15T12:51:17;18.55;;;8.90;;
29576;SDS011;16509;53.862;10.672;2022-11-15T12:53:45;16.65;;;8.40;;
29576;SDS011;16509;53.862;10.672;2022-11-15T12:58:45;19.30;;;8.70;;
29576;SDS011;16509;53.862;10.672;2022-11-15T13:01:57;15.15;;;7.70;;
29576;SDS011;16509;53.862;10.672;2022-11-15T13:11:59;15.80;;;7.75;;
29576;SDS011;16509;53.862;10.672;2022-11-15T13:19:44;14.23;;;7.85;;
29576;SDS011;16509;53.862;10.672;2022-11-15T13:22:11;15.93;;;7.95;;
29576;SDS011;16509;53.862;10.672;2022-11-15T13:24:56;12.25;;;7.03;;
29576;SDS011;16509;53.862;10.672;2022-11-15T13:27:23;23.10;;;7.55;;
29576;SDS011;16509;53.862;10.672;2022-11-15T13:29:50;19.48;;;7.50;;
29576;SDS011;16509;53.862;10.672;2022-11-15T13:32:17;16.40;;;7.50;;
29576;SDS011;16509;53.862;10.672;2022-11-15T13:34:44;12.55;;;7.25;;
29576;SDS011;16509;53.862;10.672;2022-11-15T13:40:09;15.32;;;7.53;;
29576;SDS011;16509;53.862;10.672;2022-11-15T13:42:44;15.63;;;7.13;;
29576;SDS011;16509;53.862;10.672;2022-11-15T13:45:12;17.80;;;7.80;;
29576;SDS011;16509;53.862;10.672;2022-11-15T13:47:40;14.48;;;7.25;;
29576;SDS011;16509;53.862;10.672;2022-11-15T13:50:10;11.57;;;6.72;;
29576;SDS011;16509;53.862;10.672;2022-11-15T13:52:37;22.35;;;8.32;;
29576;SDS011;16509;53.862;10.672;2022-11-15T13:57:44;14.70;;;7.15;;
29576;SDS011;16509;53.862;10.672;2022-11-15T14:08:41;15.50;;;7.75;;
29576;SDS011;16509;53.862;10.672;2022-11-15T14:19:09;16.85;;;8.63;;
29576;SDS011;16509;53.862;10.672;2022-11-15T14:25:05;16.13;;;8.45;;
29576;SDS011;16509;53.862;10.672;2022-11-15T14:30:56;18.92;;;8.38;;
29576;SDS011;16509;53.862;10.672;2022-11-15T14:33:30;37.85;;;15.05;;
29576;SDS011;16509;53.862;10.672;2022-11-15T14:36:13;45.30;;;17.92;;
29576;SDS011;16509;53.862;10.672;2022-11-15T14:38:39;48.55;;;20.55;;
29576;SDS011;16509;53.862;10.672;2022-11-15T14:41:18;27.52;;;11.73;;
29576;SDS011;16509;53.862;10.672;2022-11-15T14:43:48;21.60;;;10.15;;
29576;SDS011;16509;53.862;10.672;2022-11-15T14:46:14;23.30;;;9.40;;
29576;SDS011;16509;53.862;10.672;2022-11-15T14:48:39;21.48;;;9.00;;
29576;SDS011;16509;53.862;10.672;2022-11-15T14:51:17;16.08;;;8.68;;
29576;SDS011;16509;53.862;10.672;2022-11-15T14:53:46;16.58;;;8.73;;
29576;SDS011;16509;53.862;10.672;2022-11-15T14:56:14;18.80;;;9.27;;
29576;SDS011;16509;53.862;10.672;2022-11-15T14:58:41;17.17;;;8.15;;
29576;SDS011;16509;53.862;10.672;2022-11-15T15:01:12;20.48;;;8.30;;
29576;SDS011;16509;53.862;10.672;2022-11-15T15:03:45;15.05;;;8.25;;
29576;SDS011;16509;53.862;10.672;2022-11-15T15:06:10;16.67;;;9.35;;
29576;SDS011;16509;53.862;10.672;2022-11-15T15:08:37;14.52;;;8.75;;
29576;SDS011;16509;53.862;10.672;2022-11-15T15:11:06;17.63;;;8.73;;
29576;SDS011;16509;53.862;10.672;2022-11-15T15:13:39;16.45;;;8.77;;
29576;SDS011;16509;53.862;10.672;2022-11-15T15:16:04;25.60;;;10.18;;
29576;SDS011;16509;53.862;10.672;2022-11-15T15:18:31;23.98;;;9.48;;
29576;SDS011;16509;53.862;10.672;2022-11-15T15:20:58;18.42;;;8.70;;
29576;SDS011;16509;53.862;10.672;2022-11-15T15:23:27;18.88;;;8.30;;
29576;SDS011;16509;53.862;10.672;2022-11-15T15:25:55;19.45;;;8.95;;
29576;SDS011;16509;53.862;10.672;2022-11-15T15:28:21;22.88;;;9.27;;
29576;SDS011;16509;53.862;10.672;2022-11-15T15:30:47;18.90;;;8.55;;
29576;SDS011;16509;53.862;10.672;2022-11-15T15:33:17;16.25;;;8.70;;
29576;SDS011;16509;53.862;10.672;2022-11-15T15:35:42;14.77;;;8.25;;
29576;SDS011;16509;53.862;10.672;2022-11-15T15:38:11;18.00;;;9.00;;
29576;SDS011;16509;53.862;10.672;2022-11-15T15:40:37;13.98;;;8.10;;
29576;SDS011;16509;53.862;10.672;2022-11-15T15:43:02;21.83;;;9.45;;
29576;SDS011;16509;53.862;10.672;2022-11-15T15:45:28;18.60;;;9.52;;
29576;SDS011;16509;53.862;10.672;2022-11-15T15:47:55;19.08;;;9.65;;
29576;SDS011;16509;53.862;10.672;2022-11-15T15:50:24;19.27;;;10.13;;
29576;SDS011;16509;53.862;10.672;2022-11-15T15:52:52;24.02;;;10.23;;
29576;SDS011;16509;53.862;10.672;2022-11-15T15:55:18;17.23;;;9.50;;
29576;SDS011;16509;53.862;10.672;2022-11-15T15:57:44;19.67;;;10.43;;
29576;SDS011;16509;53.862;10.672;2022-11-15T16:00:10;21.33;;;9.52;;
29576;SDS011;16509;53.862;10.672;2022-11-15T16:02:37;20.10;;;10.57;;
29576;SDS011;16509;53.862;10.672;2022-11-15T16:05:03;25.15;;;10.85;;
29576;SDS011;16509;53.862;10.672;2022-11-15T16:07:29;25.00;;;10.82;;
29576;SDS011;16509;53.862;10.672;2022-11-15T16:09:54;21.75;;;10.68;;
29576;SDS011;16509;53.862;10.672;2022-11-15T16:12:33;18.48;;;10.13;;
29576;SDS011;16509;53.862;10.672;2022-11-15T16:15:00;23.13;;;12.07;;
29576;SDS011;16509;53.862;10.672;2022-11-15T16:17:27;23.15;;;10.70;;
29576;SDS011;16509;53.862;10.672;2022-11-15T16:19:56;23.85;;;11.60;;
29576;SDS011;16509;53.862;10.672;2022-11-15T16:22:22;22.20;;;10.70;;
29576;SDS011;16509;53.862;10.672;2022-11-15T16:24:48;27.88;;;12.82;;
29576;SDS011;16509;53.862;10.672;2022-11-15T16:27:14;27.10;;;13.05;;
29576;SDS011;16509;53.862;10.672;2022-11-15T16:29:41;22.27;;;11.98;;
29576;SDS011;16509;53.862;10.672;2022-11-15T16:32:07;24.83;;;11.70;;
29576;SDS011;16509;53.862;10.672;2022-11-15T16:34:33;23.80;;;11.27;;
29576;SDS011;16509;53.862;10.672;2022-11-15T16:36:58;23.48;;;11.18;;
29576;SDS011;16509;53.862;10.672;2022-11-15T16:39:24;27.42;;;11.85;;
29576;SDS011;16509;53.862;10.672;2022-11-15T16:41:50;22.38;;;11.43;;
29576;SDS011;16509;53.862;10.672;2022-11-15T16:44:15;21.90;;;11.18;;
29576;SDS011;16509;53.862;10.672;2022-11-15T16:46:41;26.98;;;11.45;;
29576;SDS011;16509;53.862;10.672;2022-11-15T16:49:13;23.30;;;11.20;;
29576;SDS011;16509;53.862;10.672;2022-11-15T16:51:44;22.33;;;11.70;;
29576;SDS011;16509;53.862;10.672;2022-11-15T16:54:11;24.40;;;11.52;;
29576;SDS011;16509;53.862;10.672;2022-11-15T16:56:37;25.23;;;12.38;;
29576;SDS011;16509;53.862;10.672;2022-11-15T16:59:03;29.35;;;11.85;;
29576;SDS011;16509;53.862;10.672;2022-11-15T17:01:32;28.15;;;11.68;;
29576;SDS011;16509;53.862;10.672;2022-11-15T17:03:59;27.33;;;11.02;;
29576;SDS011;16509;53.862;10.672;2022-11-15T17:06:36;28.90;;;11.50;;
29576;SDS011;16509;53.862;10.672;2022-11-15T17:09:02;24.10;;;12.20;;
29576;SDS011;16509;53.862;10.672;2022-11-15T17:11:28;25.88;;;11.65;;
29576;SDS011;16509;53.862;10.672;2022-11-15T17:13:56;25.02;;;11.68;;
29576;SDS011;16509;53.862;10.672;2022-11-15T17:16:23;25.42;;;11.40;;
29576;SDS011;16509;53.862;10.672;2022-11-15T17:18:52;27.17;;;12.52;;
29576;SDS011;16509;53.862;10.672;2022-11-15T17:21:18;26.70;;;11.90;;
29576;SDS011;16509;53.862;10.672;2022-11-15T17:23:46;24.90;;;12.43;;
29576;SDS011;16509;53.862;10.672;2022-11-15T17:26:12;23.02;;;12.50;;
29576;SDS011;16509;53.862;10.672;2022-11-15T17:28:39;26.38;;;11.77;;
29576;SDS011;16509;53.862;10.672;2022-11-15T17:31:06;22.42;;;12.35;;
29576;SDS011;16509;53.862;10.672;2022-11-15T17:33:33;27.70;;;14.57;;
29576;SDS011;16509;53.862;10.672;2022-11-15T17:36:03;34.60;;;15.13;;